Terminal Aerodrome Forecast
Issued by NWS

Home | Current Version | Previous Version | Text Only | Print | Product List | Glossary On
Versions: 1 2 3 4 5 6 7 8 9 10 11 12 13 14 15 16 17 18 19
000
FTUS42 KFFC 190500 RRA
TAFPDK
TAF
KPDK 190543Z 1906/2006 06003KT P6SM BKN200
     FM191100 07004KT 6SM BR BKN008
     FM191400 08005KT P6SM BKN015
     FM191600 10008KT P6SM SCT045
     FM200100 08005KT P6SM FEW060=

USA.gov is the U.S. government's official web portal to all federal, state and local government web resources and services.